createdAt,value
2022-11-05T00:04:31.636Z,98
2022-11-05T00:14:36.584Z,94
2022-11-05T00:24:41.806Z,96
2022-11-05T00:34:47.071Z,96
2022-11-05T00:44:52.304Z,96
2022-11-05T00:54:57.592Z,94
2022-11-05T01:05:03.094Z,96
2022-11-05T01:15:08.579Z,98
2022-11-05T01:25:13.797Z,100
2022-11-05T01:35:19.068Z,96
2022-11-05T01:45:23.886Z,96
2022-11-05T01:55:29.227Z,94
2022-11-05T02:05:34.458Z,96
2022-11-05T02:15:39.692Z,96
2022-11-05T02:25:45.151Z,94
2022-11-05T02:35:50.158Z,98
2022-11-05T02:45:55.539Z,94
2022-11-05T02:56:00.900Z,96
2022-11-05T03:06:06.058Z,98
2022-11-05T03:16:11.506Z,96
2022-11-05T03:26:16.605Z,98
2022-11-05T03:36:21.931Z,100
2022-11-05T03:46:27.529Z,98
2022-11-05T03:56:32.830Z,96
2022-11-05T04:06:37.880Z,96
2022-11-05T04:16:43.314Z,98
2022-11-05T04:26:48.673Z,98
2022-11-05T04:36:53.777Z,96
2022-11-05T04:46:59.084Z,100
2022-11-05T04:57:04.292Z,98
2022-11-05T05:07:09.611Z,96
2022-11-05T05:17:14.725Z,98
2022-11-05T05:27:20.274Z,98
2022-11-05T05:37:25.590Z,98
2022-11-05T05:47:31.047Z,98
2022-11-05T05:57:36.327Z,96
2022-11-05T06:07:41.459Z,98
2022-11-05T06:17:46.552Z,98
2022-11-05T06:27:51.849Z,98
2022-11-05T06:37:56.907Z,96
2022-11-05T06:48:02.600Z,98
2022-11-05T06:58:07.927Z,96
2022-11-05T07:08:13.255Z,98
2022-11-05T07:18:18.254Z,96
2022-11-05T07:28:23.509Z,98
2022-11-05T07:38:28.686Z,92
2022-11-05T07:48:34.188Z,100
2022-11-05T07:58:39.285Z,98
2022-11-05T08:08:45.463Z,98
2022-11-05T08:18:50.977Z,96
2022-11-05T08:28:56.186Z,98
2022-11-05T08:39:01.374Z,98
2022-11-05T08:49:06.578Z,98
2022-11-05T08:59:11.694Z,94
2022-11-05T09:09:17.030Z,100
2022-11-05T09:19:22.207Z,96
2022-11-05T09:29:27.795Z,96
2022-11-05T09:39:33.228Z,96
2022-11-05T09:49:38.721Z,92
2022-11-05T09:59:44.014Z,100
2022-11-05T10:09:49.618Z,94
2022-11-05T10:19:54.863Z,98
2022-11-05T10:30:00.359Z,94
2022-11-05T10:40:06.055Z,100
2022-11-05T10:50:11.381Z,94
2022-11-05T11:00:17.340Z,94
2022-11-05T11:10:23.072Z,94
2022-11-05T11:20:28.443Z,96
2022-11-05T11:30:33.818Z,94
2022-11-05T11:40:39.269Z,94
2022-11-05T11:50:44.442Z,94
2022-11-05T12:00:50.107Z,90
2022-11-05T12:10:55.377Z,88
2022-11-05T12:21:00.778Z,92
2022-11-05T12:31:06.603Z,94
2022-11-05T12:41:11.486Z,92
2022-11-05T12:51:17.053Z,92
2022-11-05T13:01:22.746Z,94
2022-11-05T13:11:28.292Z,92
2022-11-05T13:21:33.188Z,92
2022-11-05T13:31:38.527Z,92
2022-11-05T13:41:44.016Z,94
2022-11-05T13:51:49.291Z,92
2022-11-05T14:01:54.768Z,94
2022-11-05T14:12:00.284Z,92
2022-11-05T14:22:05.372Z,92
2022-11-05T14:32:10.422Z,92
2022-11-05T14:42:15.280Z,94
2022-11-05T14:52:20.290Z,92
2022-11-05T15:02:25.688Z,90
2022-11-05T15:12:30.977Z,94
2022-11-05T15:22:36.452Z,90
2022-11-05T15:32:41.717Z,94
2022-11-05T15:42:46.970Z,96
2022-11-05T15:52:52.437Z,94
2022-11-05T16:02:57.935Z,98
2022-11-05T16:13:03.073Z,100
2022-11-05T16:23:08.224Z,98
2022-11-05T16:33:13.561Z,94
2022-11-05T16:43:18.651Z,92
2022-11-05T16:53:23.870Z,96
2022-11-05T17:03:28.576Z,94
2022-11-05T17:13:33.378Z,96
2022-11-05T17:23:38.625Z,98
2022-11-05T17:33:43.557Z,102
2022-11-05T17:43:48.550Z,94
2022-11-05T17:53:53.668Z,94
2022-11-05T18:04:02.442Z,98
2022-11-05T18:14:08.953Z,94
2022-11-05T18:24:13.766Z,96
2022-11-05T18:34:19.194Z,94
2022-11-05T18:44:24.372Z,92
2022-11-05T18:54:29.617Z,92
2022-11-05T19:04:34.863Z,92
2022-11-05T19:14:40.236Z,90
2022-11-05T19:24:45.414Z,92
2022-11-05T19:34:50.749Z,94
2022-11-05T19:44:55.951Z,94
2022-11-05T19:55:01.261Z,92
2022-11-05T20:05:06.273Z,92
2022-11-05T20:15:11.486Z,94
2022-11-05T20:25:16.742Z,92
2022-11-05T20:35:21.782Z,94
2022-11-05T20:45:27.147Z,94
2022-11-05T20:55:32.633Z,90
2022-11-05T21:05:37.826Z,92
2022-11-05T21:15:43.112Z,90
2022-11-05T21:25:48.491Z,92
2022-11-05T21:35:53.202Z,90
2022-11-05T21:45:58.401Z,90
2022-11-05T21:56:03.372Z,90
2022-11-05T22:06:08.722Z,88
2022-11-05T22:16:13.919Z,86
2022-11-05T22:26:19.353Z,92
2022-11-05T22:36:24.394Z,92
2022-11-05T22:46:29.812Z,88
2022-11-05T22:56:35.034Z,88
2022-11-05T23:06:40.405Z,86
2022-11-05T23:16:45.465Z,90
2022-11-05T23:26:50.679Z,90
2022-11-05T23:36:55.663Z,92
2022-11-05T23:47:01.043Z,90
2022-11-05T23:57:06.781Z,90
